Time;durP1;ratioP1;P1;durP2;ratioP2;P2;SDS_P1;SDS_P2;PMS_P1;PMS_P2;Temp;Humidity;BMP_temperature;BMP_pressure;BME280_temperature;BME280_humidity;BME280_pressure;Samples;Min_cycle;Max_cycle;Signal;HPM_P1;HPM_P2
2023/07/02 00:01:43;;;;;;;4.73;2.77;;;13.90;99.90;;;;;;4991454;28;20230;-81
2023/07/02 00:04:15;;;;;;;4.17;2.63;;;13.90;99.90;;;;;;4997466;28;20253;-81
2023/07/02 00:06:42;;;;;;;6.87;2.60;;;13.80;99.90;;;;;;4998379;28;20797;-81
2023/07/02 00:09:10;;;;;;;9.00;2.70;;;13.80;99.90;;;;;;4997653;28;20731;-82
2023/07/02 00:11:37;;;;;;;3.50;2.60;;;13.80;99.90;;;;;;4992535;28;20237;-81
2023/07/02 00:14:04;;;;;;;5.97;2.40;;;13.70;99.90;;;;;;4982348;28;20968;-81
2023/07/02 00:16:31;;;;;;;7.43;2.80;;;13.70;99.90;;;;;;4999878;28;20232;-80
2023/07/02 00:18:59;;;;;;;6.23;2.80;;;13.70;99.90;;;;;;4987563;28;20230;-80
2023/07/02 00:21:28;;;;;;;8.20;3.37;;;13.70;99.90;;;;;;4988978;28;20257;-80
2023/07/02 00:23:56;;;;;;;7.93;3.20;;;13.60;99.90;;;;;;4995518;28;20243;-81
2023/07/02 00:26:24;;;;;;;8.50;3.03;;;13.60;99.90;;;;;;4992160;28;20225;-81
2023/07/02 00:28:51;;;;;;;4.80;3.17;;;13.60;99.90;;;;;;4996108;28;20311;-81
2023/07/02 00:31:18;;;;;;;7.13;3.07;;;13.60;99.90;;;;;;4991854;28;20218;-81
2023/07/02 00:33:45;;;;;;;7.53;2.73;;;13.50;99.90;;;;;;5000050;28;20227;-80
2023/07/02 00:36:14;;;;;;;4.80;3.20;;;13.50;99.90;;;;;;4995691;28;20231;-80
2023/07/02 00:38:44;;;;;;;6.07;3.03;;;13.50;99.90;;;;;;4991275;28;20234;-81
2023/07/02 00:41:12;;;;;;;4.80;2.80;;;13.40;99.90;;;;;;4991621;28;20243;-81
2023/07/02 00:43:43;;;;;;;5.27;3.00;;;13.40;99.90;;;;;;4994912;28;20256;-81
2023/07/02 00:46:12;;;;;;;5.27;3.30;;;13.40;99.90;;;;;;4992870;28;20807;-80
2023/07/02 00:48:39;;;;;;;7.00;2.90;;;13.40;99.90;;;;;;4994071;28;20245;-81
2023/07/02 00:51:06;;;;;;;7.37;3.10;;;13.50;99.90;;;;;;4999065;28;20218;-80
2023/07/02 00:53:33;;;;;;;7.13;3.37;;;13.50;99.90;;;;;;4995467;28;20228;-81
2023/07/02 00:56:02;;;;;;;3.73;3.00;;;13.50;99.90;;;;;;5007605;28;20298;-80
2023/07/02 00:58:29;;;;;;;8.50;3.20;;;13.50;99.90;;;;;;4992478;28;20223;-80
2023/07/02 01:00:57;;;;;;;5.47;3.40;;;13.60;99.90;;;;;;5009440;28;20234;-81
2023/07/02 01:03:23;;;;;;;7.53;3.27;;;13.60;99.90;;;;;;4988151;28;20413;-81
2023/07/02 01:05:51;;;;;;;9.27;4.00;;;13.60;99.90;;;;;;4997422;28;20344;-80
2023/07/02 01:08:18;;;;;;;5.47;3.03;;;13.70;99.90;;;;;;4986506;28;20558;-80
2023/07/02 01:10:45;;;;;;;5.77;3.10;;;13.70;99.90;;;;;;4992472;23;20243;-80
2023/07/02 01:13:18;;;;;;;6.73;3.03;;;13.80;99.90;;;;;;4960179;28;20712;-80
2023/07/02 01:15:46;;;;;;;6.53;3.47;;;13.80;99.90;;;;;;4962909;28;20222;-80
2023/07/02 01:18:15;;;;;;;8.10;3.23;;;13.80;99.90;;;;;;4966461;28;20250;-80
2023/07/02 01:20:43;;;;;;;9.43;3.50;;;13.90;99.90;;;;;;4961780;28;20230;-80
2023/07/02 01:23:11;;;;;;;8.67;3.20;;;13.90;99.90;;;;;;4977397;28;20226;-80
2023/07/02 01:25:38;;;;;;;5.07;3.10;;;13.90;99.90;;;;;;4969424;28;20286;-80
2023/07/02 01:28:05;;;;;;;8.27;3.27;;;13.90;99.90;;;;;;4980471;28;20255;-80
2023/07/02 01:30:32;;;;;;;6.87;3.40;;;14.00;99.90;;;;;;4978045;28;20770;-80
2023/07/02 01:32:59;;;;;;;7.97;3.10;;;14.00;99.90;;;;;;4960726;28;20232;-80
2023/07/02 01:35:26;;;;;;;6.10;3.30;;;14.00;99.90;;;;;;4961147;28;20230;-80
2023/07/02 01:37:54;;;;;;;7.10;3.40;;;14.00;99.90;;;;;;4963734;28;20265;-80
2023/07/02 01:40:21;;;;;;;6.37;3.07;;;14.00;99.90;;;;;;4963528;28;20238;-81
2023/07/02 01:42:48;;;;;;;6.53;3.33;;;14.00;99.90;;;;;;4964306;28;20218;-81
2023/07/02 01:45:15;;;;;;;6.67;3.13;;;13.90;99.90;;;;;;4957989;28;20270;-82
2023/07/02 01:47:42;;;;;;;6.43;3.30;;;13.90;99.90;;;;;;4967674;28;20240;-80
2023/07/02 01:50:11;;;;;;;8.03;3.47;;;13.90;99.90;;;;;;4961291;28;20292;-80
2023/07/02 01:52:38;;;;;;;7.77;3.17;;;13.90;99.90;;;;;;4972601;28;20737;-80
2023/07/02 01:55:07;;;;;;;4.80;3.00;;;13.90;99.90;;;;;;4977816;28;20810;-79
2023/07/02 01:57:34;;;;;;;8.83;3.60;;;13.90;99.90;;;;;;4952148;28;20311;-80
2023/07/02 02:00:00;;;;;;;6.63;3.67;;;14.00;99.90;;;;;;4960772;28;20599;-81
2023/07/02 02:02:27;;;;;;;5.87;3.30;;;14.00;99.90;;;;;;4977620;28;20260;-81
2023/07/02 02:04:56;;;;;;;6.43;3.60;;;14.00;99.90;;;;;;4956446;28;20236;-83
2023/07/02 02:07:23;;;;;;;7.10;3.53;;;14.00;99.90;;;;;;4966125;28;20240;-82
2023/07/02 02:09:50;;;;;;;8.73;3.63;;;14.00;99.90;;;;;;4964428;28;20331;-83
2023/07/02 02:12:18;;;;;;;7.60;3.87;;;14.00;99.90;;;;;;4978341;28;20224;-82
2023/07/02 02:14:45;;;;;;;9.17;3.63;;;14.00;99.90;;;;;;4958776;28;20738;-83
2023/07/02 02:17:14;;;;;;;10.33;4.27;;;14.00;99.90;;;;;;4975620;28;20320;-80
2023/07/02 02:19:41;;;;;;;10.47;4.23;;;14.00;99.90;;;;;;4978786;28;20227;-80
2023/07/02 02:22:11;;;;;;;7.70;3.90;;;14.00;99.90;;;;;;4977875;28;20893;-79
2023/07/02 02:24:37;;;;;;;7.93;4.10;;;14.00;99.90;;;;;;4966003;28;20312;-79
2023/07/02 02:27:05;;;;;;;6.03;3.73;;;14.00;99.90;;;;;;4961784;28;20241;-79
2023/07/02 02:29:33;;;;;;;7.30;3.90;;;13.90;99.90;;;;;;4965276;28;20227;-79
2023/07/02 02:32:00;;;;;;;7.87;3.77;;;14.00;99.90;;;;;;4958478;28;20317;-80
2023/07/02 02:34:28;;;;;;;7.73;3.90;;;13.90;99.90;;;;;;4961491;28;20305;-80
2023/07/02 02:36:57;;;;;;;12.10;4.57;;;13.90;99.90;;;;;;4980688;28;20988;-80
2023/07/02 02:39:24;;;;;;;8.37;3.87;;;13.90;99.90;;;;;;4976078;28;20239;-81
2023/07/02 02:41:50;;;;;;;10.07;3.80;;;13.90;99.90;;;;;;4962147;28;20238;-81
2023/07/02 02:44:20;;;;;;;5.33;3.83;;;13.90;99.90;;;;;;4973525;28;20224;-80
2023/07/02 02:46:49;;;;;;;8.30;4.27;;;13.90;99.90;;;;;;4963089;28;20242;-80
2023/07/02 02:49:15;;;;;;;10.50;4.20;;;13.90;99.90;;;;;;4960120;28;20219;-79
2023/07/02 02:51:43;;;;;;;10.07;4.20;;;13.90;99.90;;;;;;4960953;28;20239;-80
2023/07/02 02:54:09;;;;;;;7.67;3.70;;;13.90;99.90;;;;;;4976793;28;20230;-79
2023/07/02 02:56:36;;;;;;;7.30;3.77;;;13.80;99.90;;;;;;4974869;28;20305;-81
2023/07/02 02:59:03;;;;;;;7.50;3.90;;;13.80;99.90;;;;;;4975906;28;20226;-80
2023/07/02 03:01:30;;;;;;;9.07;4.10;;;13.80;99.90;;;;;;4960135;28;20414;-80
2023/07/02 03:03:59;;;;;;;7.83;4.00;;;13.80;99.90;;;;;;4968548;28;20689;-79
2023/07/02 03:06:26;;;;;;;8.27;3.87;;;13.80;99.90;;;;;;4944406;28;20238;-82
2023/07/02 03:08:53;;;;;;;9.47;4.30;;;13.70;99.90;;;;;;4947372;28;20230;-80
2023/07/02 03:11:20;;;;;;;9.77;4.60;;;13.70;99.90;;;;;;4972057;28;20245;-82
2023/07/02 03:13:47;;;;;;;6.53;4.07;;;13.70;99.90;;;;;;4976376;28;20526;-81
2023/07/02 03:16:14;;;;;;;8.13;4.30;;;13.70;99.90;;;;;;4965578;28;20268;-81
2023/07/02 03:18:41;;;;;;;7.20;4.00;;;13.70;99.90;;;;;;4967164;28;20223;-81
2023/07/02 03:21:10;;;;;;;9.27;4.00;;;13.70;99.90;;;;;;4974687;28;20231;-80
2023/07/02 03:23:37;;;;;;;9.90;4.60;;;13.70;99.90;;;;;;4969404;28;20800;-80
2023/07/02 03:26:04;;;;;;;7.70;4.40;;;13.70;99.90;;;;;;4959283;28;20230;-80
2023/07/02 03:28:34;;;;;;;8.10;4.17;;;13.70;99.90;;;;;;4962070;28;20281;-82
2023/07/02 03:31:01;;;;;;;6.80;3.93;;;13.60;99.90;;;;;;4959888;28;20464;-80
2023/07/02 03:33:28;;;;;;;12.67;4.80;;;13.60;99.90;;;;;;4960945;28;20227;-80
2023/07/02 03:35:55;;;;;;;9.00;5.20;;;13.70;99.90;;;;;;4967497;28;20724;-80
2023/07/02 03:38:24;;;;;;;6.77;4.17;;;13.70;99.90;;;;;;4957533;28;20767;-80
2023/07/02 03:40:51;;;;;;;7.63;4.53;;;13.60;99.90;;;;;;4973804;28;20312;-80
2023/07/02 03:43:18;;;;;;;8.50;4.53;;;13.60;99.90;;;;;;4959597;28;21751;-80
2023/07/02 03:45:45;;;;;;;6.47;4.23;;;13.60;99.90;;;;;;4978310;28;20221;-80
2023/07/02 03:48:12;;;;;;;10.43;4.30;;;13.60;99.90;;;;;;4970952;28;20892;-78
2023/07/02 03:50:39;;;;;;;12.90;4.47;;;13.60;99.90;;;;;;4979438;28;20226;-80
2023/07/02 03:53:06;;;;;;;10.03;4.47;;;13.60;99.90;;;;;;4976310;28;20233;-80
2023/07/02 03:55:36;;;;;;;9.67;4.47;;;13.60;99.90;;;;;;4974350;28;20928;-79
2023/07/02 03:58:03;;;;;;;9.40;4.77;;;13.60;99.90;;;;;;4960215;28;20226;-80
2023/07/02 04:00:29;;;;;;;11.30;4.70;;;13.60;99.90;;;;;;4962826;28;20238;-80
2023/07/02 04:02:56;;;;;;;10.27;4.70;;;13.60;99.90;;;;;;4964553;28;20780;-81
2023/07/02 04:05:23;;;;;;;10.17;4.77;;;13.70;99.90;;;;;;4958086;28;20229;-80
2023/07/02 04:07:50;;;;;;;9.30;4.73;;;13.70;99.90;;;;;;4969861;28;20734;-80
2023/07/02 04:10:17;;;;;;;14.13;4.70;;;13.70;99.90;;;;;;4962813;28;20234;-80
2023/07/02 04:12:47;;;;;;;11.37;5.17;;;13.70;99.90;;;;;;4961327;28;20232;-80
2023/07/02 04:15:19;;;;;;;11.47;4.80;;;13.70;99.90;;;;;;4958451;28;20220;-79
2023/07/02 04:17:50;;;;;;;10.90;4.40;;;13.80;99.90;;;;;;4968940;28;20221;-81
2023/07/02 04:20:18;;;;;;;9.73;4.90;;;13.80;99.90;;;;;;4963377;28;20228;-80
2023/07/02 04:22:48;;;;;;;15.20;5.10;;;13.80;99.90;;;;;;4967911;28;20236;-81
2023/07/02 04:25:21;;;;;;;14.97;5.43;;;13.90;99.90;;;;;;4980773;28;21005;-80
2023/07/02 04:27:56;;;;;;;9.70;5.23;;;13.90;99.90;;;;;;4958570;28;20303;-80
2023/07/02 04:30:23;;;;;;;11.63;4.80;;;13.90;99.90;;;;;;4958600;28;20232;-80
2023/07/02 04:32:50;;;;;;;11.03;5.27;;;14.00;99.90;;;;;;4962604;28;20307;-81
2023/07/02 04:35:17;;;;;;;15.53;5.60;;;14.00;99.90;;;;;;4977740;28;20240;-80
2023/07/02 04:37:44;;;;;;;12.33;5.80;;;14.00;99.90;;;;;;4984259;28;20239;-79
2023/07/02 04:40:11;;;;;;;12.03;5.33;;;13.90;99.90;;;;;;4986148;28;20216;-80
2023/07/02 04:42:38;;;;;;;10.10;5.10;;;14.00;99.90;;;;;;4973505;28;20596;-80
2023/07/02 04:45:08;;;;;;;11.70;5.27;;;14.00;99.90;;;;;;4962335;28;20222;-82
2023/07/02 04:47:35;;;;;;;12.27;5.73;;;14.00;99.90;;;;;;4969068;28;20612;-81
2023/07/02 04:50:02;;;;;;;12.57;5.53;;;14.00;99.90;;;;;;4974816;28;20710;-80
2023/07/02 04:52:29;;;;;;;13.67;5.83;;;14.00;99.90;;;;;;4958335;28;20558;-79
2023/07/02 04:54:56;;;;;;;14.37;5.70;;;14.00;99.90;;;;;;4979315;28;20224;-79
2023/07/02 04:57:23;;;;;;;15.60;6.10;;;14.00;99.90;;;;;;4972516;28;20231;-79
2023/07/02 04:59:50;;;;;;;13.07;5.73;;;14.00;99.90;;;;;;4965005;28;20744;-79
2023/07/02 05:02:18;;;;;;;16.00;6.40;;;14.10;99.90;;;;;;4967406;28;20307;-80
2023/07/02 05:04:44;;;;;;;10.67;5.57;;;14.10;99.90;;;;;;4978173;28;20255;-79
2023/07/02 05:07:11;;;;;;;15.43;6.03;;;14.10;99.90;;;;;;4981733;28;20226;-78
2023/07/02 05:09:38;;;;;;;16.43;6.30;;;14.10;99.90;;;;;;4983538;28;20220;-79
2023/07/02 05:12:05;;;;;;;16.20;6.10;;;14.10;99.90;;;;;;4962244;28;20225;-79
2023/07/02 05:14:31;;;;;;;18.90;6.63;;;14.20;99.90;;;;;;4960132;28;20224;-79
2023/07/02 05:16:58;;;;;;;17.27;7.20;;;14.20;99.90;;;;;;4970929;28;20227;-79
2023/07/02 05:19:26;;;;;;;17.33;6.90;;;14.20;99.90;;;;;;4959218;28;20243;-79
2023/07/02 05:21:53;;;;;;;16.50;5.80;;;14.20;99.90;;;;;;4966397;28;20220;-80
2023/07/02 05:24:20;;;;;;;14.93;7.10;;;14.20;99.90;;;;;;4954548;28;20237;-79
2023/07/02 05:26:47;;;;;;;19.60;7.10;;;14.20;99.90;;;;;;4974261;28;20990;-79
2023/07/02 05:29:15;;;;;;;14.00;6.20;;;14.30;99.90;;;;;;4958356;28;20256;-79
2023/07/02 05:31:42;;;;;;;15.30;6.30;;;14.30;99.90;;;;;;4956496;28;20299;-80
2023/07/02 05:34:08;;;;;;;17.47;6.57;;;14.30;99.90;;;;;;4964156;28;20232;-79
2023/07/02 05:36:36;;;;;;;18.60;7.33;;;14.30;99.90;;;;;;4956699;28;20228;-80
2023/07/02 05:39:03;;;;;;;16.80;6.20;;;14.40;99.90;;;;;;4961897;28;20768;-79
2023/07/02 05:41:30;;;;;;;13.60;6.63;;;14.40;99.90;;;;;;4951315;28;20239;-79
2023/07/02 05:43:57;;;;;;;19.13;7.20;;;14.40;99.90;;;;;;4970404;28;20287;-79
2023/07/02 05:46:24;;;;;;;18.07;6.50;;;14.40;99.90;;;;;;4960368;28;20283;-79
2023/07/02 05:48:50;;;;;;;14.13;6.43;;;14.50;99.90;;;;;;4961636;28;21000;-79
2023/07/02 05:51:21;;;;;;;22.57;7.67;;;14.50;99.90;;;;;;4969181;28;20231;-79
2023/07/02 05:53:52;;;;;;;16.13;7.10;;;14.60;99.90;;;;;;4959952;28;20223;-79
2023/07/02 05:56:19;;;;;;;16.57;7.37;;;14.60;99.90;;;;;;4961088;28;20272;-79
2023/07/02 05:58:46;;;;;;;14.27;6.90;;;14.60;99.90;;;;;;4968593;28;20247;-79
2023/07/02 06:01:14;;;;;;;17.20;7.53;;;14.70;99.90;;;;;;4947545;28;20310;-79
2023/07/02 06:03:42;;;;;;;17.80;6.80;;;14.70;99.90;;;;;;4949550;28;20384;-79
2023/07/02 06:06:08;;;;;;;20.77;7.87;;;14.80;99.90;;;;;;4949286;28;20749;-79
2023/07/02 06:08:35;;;;;;;20.90;7.20;;;14.90;99.90;;;;;;4941908;28;20233;-79
2023/07/02 06:11:03;;;;;;;16.10;6.63;;;14.90;99.90;;;;;;4942469;28;20666;-81
2023/07/02 06:13:30;;;;;;;16.77;7.70;;;15.00;99.90;;;;;;4963341;28;20236;-80
2023/07/02 06:15:57;;;;;;;21.40;8.40;;;15.00;99.90;;;;;;4965205;28;20250;-82
2023/07/02 06:18:23;;;;;;;20.57;7.80;;;15.00;99.90;;;;;;4962568;28;22413;-81
2023/07/02 06:20:50;;;;;;;19.23;6.87;;;15.10;99.90;;;;;;4959061;28;20251;-81
2023/07/02 06:23:17;;;;;;;21.00;7.73;;;15.20;99.90;;;;;;4958786;28;20219;-81
2023/07/02 06:25:43;;;;;;;23.50;7.70;;;15.20;99.90;;;;;;4958996;28;20328;-81
2023/07/02 06:28:12;;;;;;;16.30;7.37;;;15.40;99.90;;;;;;4956652;28;20229;-82
2023/07/02 06:30:38;;;;;;;20.57;7.60;;;15.50;99.90;;;;;;4975649;28;20230;-81
2023/07/02 06:33:05;;;;;;;16.27;7.00;;;15.60;99.90;;;;;;4965916;28;20325;-79
2023/07/02 06:35:32;;;;;;;16.10;7.30;;;15.70;99.90;;;;;;4970729;28;20234;-81
2023/07/02 06:37:58;;;;;;;20.13;7.00;;;15.80;99.90;;;;;;4965998;28;20228;-81
2023/07/02 06:40:25;;;;;;;19.00;7.47;;;15.90;99.90;;;;;;4963836;28;20230;-80
2023/07/02 06:42:52;;;;;;;17.73;6.97;;;16.00;99.90;;;;;;4956376;28;20738;-80
2023/07/02 06:45:20;;;;;;;21.13;8.53;;;16.10;99.90;;;;;;4947004;28;20230;-79
2023/07/02 06:47:47;;;;;;;12.77;7.23;;;16.10;99.90;;;;;;4948782;28;21901;-79
2023/07/02 06:50:13;;;;;;;17.73;7.60;;;16.20;99.90;;;;;;4980894;28;20553;-79
2023/07/02 06:52:40;;;;;;;18.47;7.97;;;16.30;99.90;;;;;;4951324;28;20224;-81
2023/07/02 06:55:07;;;;;;;16.83;7.37;;;16.40;99.90;;;;;;4943025;28;20233;-80
2023/07/02 06:57:34;;;;;;;18.07;8.40;;;16.60;99.90;;;;;;4958038;28;20230;-81
2023/07/02 07:00:01;;;;;;;15.73;7.27;;;16.80;99.90;;;;;;4976080;28;20284;-78
2023/07/02 07:02:29;;;;;;;18.30;7.47;;;17.00;99.90;;;;;;4966818;28;20317;-78
2023/07/02 07:04:55;;;;;;;16.57;7.57;;;17.30;99.90;;;;;;4956825;28;20270;-81
2023/07/02 07:07:22;;;;;;;19.53;7.00;;;17.60;99.90;;;;;;4961924;28;20236;-79
2023/07/02 07:09:49;;;;;;;17.07;7.77;;;17.80;99.90;;;;;;4962670;28;20250;-80
2023/07/02 07:12:15;;;;;;;22.73;7.83;;;18.00;99.90;;;;;;4962793;28;20224;-80
2023/07/02 07:14:43;;;;;;;16.43;7.37;;;18.30;99.90;;;;;;4979338;28;20233;-80
2023/07/02 07:17:10;;;;;;;14.67;7.07;;;18.40;99.90;;;;;;4963182;28;20237;-80
2023/07/02 07:19:38;;;;;;;20.87;7.60;;;18.50;99.90;;;;;;4959926;28;20261;-80
2023/07/02 07:22:05;;;;;;;15.70;7.17;;;18.60;99.90;;;;;;4957955;28;20223;-79
2023/07/02 07:24:31;;;;;;;21.30;7.83;;;18.70;99.90;;;;;;4961291;28;20274;-79
2023/07/02 07:26:58;;;;;;;17.10;7.17;;;18.70;99.90;;;;;;4961562;28;20226;-83
2023/07/02 07:29:25;;;;;;;16.00;6.87;;;18.70;99.90;;;;;;4960282;28;20318;-79
2023/07/02 07:31:51;;;;;;;22.47;7.07;;;18.80;99.90;;;;;;4961090;28;20223;-79
2023/07/02 07:34:18;;;;;;;15.33;7.17;;;18.80;99.90;;;;;;4960765;28;20248;-79
2023/07/02 07:36:46;;;;;;;14.30;7.03;;;18.80;99.90;;;;;;4974758;28;20227;-81
2023/07/02 07:39:13;;;;;;;19.33;7.40;;;18.70;99.90;;;;;;4959386;28;21063;-80
2023/07/02 07:41:39;;;;;;;17.83;7.30;;;18.60;99.90;;;;;;4953413;28;20892;-79
2023/07/02 07:44:06;;;;;;;18.73;7.53;;;18.50;99.90;;;;;;4974065;28;20235;-82
2023/07/02 07:46:33;;;;;;;16.83;6.87;;;18.30;99.90;;;;;;4958065;28;20721;-79
2023/07/02 07:49:00;;;;;;;15.97;6.80;;;18.20;99.90;;;;;;4954611;28;20224;-79
2023/07/02 07:51:27;;;;;;;12.90;7.27;;;18.00;99.90;;;;;;4959165;28;20241;-79
2023/07/02 07:53:55;;;;;;;12.67;6.60;;;17.90;99.90;;;;;;4952312;28;20333;-83
2023/07/02 07:56:22;;;;;;;15.37;7.17;;;17.90;99.90;;;;;;4961431;28;20261;-81
2023/07/02 07:58:48;;;;;;;13.60;5.97;;;17.80;99.90;;;;;;4960936;28;20309;-78
2023/07/02 08:01:15;;;;;;;17.50;7.70;;;17.80;99.90;;;;;;4951786;28;20227;-79
2023/07/02 08:03:42;;;;;;;14.47;6.53;;;18.00;99.90;;;;;;4976713;28;20329;-81
2023/07/02 08:06:08;;;;;;;13.73;6.33;;;18.20;99.90;;;;;;4958165;28;20225;-79
2023/07/02 08:08:35;;;;;;;13.87;6.50;;;18.50;99.90;;;;;;4959534;28;20309;-82
2023/07/02 08:11:03;;;;;;;13.75;6.10;;;18.90;99.90;;;;;;4958244;28;20257;-79
2023/07/02 08:13:30;;;;;;;13.02;6.50;;;19.30;99.90;;;;;;4950530;28;20253;-79
2023/07/02 08:15:56;;;;;;;11.05;6.32;;;19.80;99.90;;;;;;4958649;28;20223;-82
2023/07/02 08:18:23;;;;;;;14.10;6.95;;;20.20;99.90;;;;;;4972594;28;20223;-79
2023/07/02 08:20:50;;;;;;;14.18;6.68;;;20.60;99.90;;;;;;4953301;28;20223;-79
2023/07/02 08:23:19;;;;;;;13.40;6.30;;;21.00;99.90;;;;;;4958646;28;20972;-79
2023/07/02 08:25:46;;;;;;;15.52;6.47;;;21.40;99.50;;;;;;4973431;28;20233;-79
2023/07/02 08:28:14;;;;;;;10.50;5.88;;;21.80;99.10;;;;;;4959774;28;20272;-80
2023/07/02 08:30:41;;;;;;;12.88;6.20;;;22.10;96.80;;;;;;4958767;28;20215;-79
2023/07/02 08:33:08;;;;;;;13.05;6.20;;;22.30;97.00;;;;;;4946374;28;20290;-81
2023/07/02 08:35:34;;;;;;;12.00;5.68;;;22.40;96.50;;;;;;4978910;28;20246;-79
2023/07/02 08:38:01;;;;;;;12.13;6.35;;;22.30;95.70;;;;;;4959910;28;20223;-79
2023/07/02 08:40:28;;;;;;;9.75;5.65;;;22.10;95.50;;;;;;4961755;28;20533;-81
2023/07/02 08:42:56;;;;;;;13.63;6.07;;;21.90;95.30;;;;;;4960768;28;20235;-83
2023/07/02 08:45:26;;;;;;;11.60;5.60;;;21.70;95.40;;;;;;4959158;28;20227;-79
2023/07/02 08:47:56;;;;;;;12.73;5.70;;;21.40;95.50;;;;;;4961381;28;20223;-81
2023/07/02 08:50:23;;;;;;;8.38;5.28;;;21.20;95.20;;;;;;4962350;28;20235;-79
2023/07/02 08:52:50;;;;;;;9.80;5.00;;;20.90;95.60;;;;;;4959826;28;20254;-79
2023/07/02 08:55:17;;;;;;;9.77;5.22;;;20.70;95.80;;;;;;4958840;28;20226;-80
2023/07/02 08:57:50;;;;;;;11.70;5.38;;;20.70;96.10;;;;;;4963259;28;20231;-79
2023/07/02 09:00:17;;;;;;;9.80;5.20;;;20.70;94.90;;;;;;4962298;28;20235;-79
2023/07/02 09:02:46;;;;;;;9.98;5.18;;;20.70;95.70;;;;;;4960758;28;20229;-79
2023/07/02 09:05:13;;;;;;;10.05;4.65;;;20.90;95.90;;;;;;4966184;28;20286;-79
2023/07/02 09:07:47;;;;;;;9.95;4.82;;;21.20;96.30;;;;;;4973008;28;20322;-80
2023/07/02 09:10:25;;;;;;;8.93;4.45;;;21.60;94.60;;;;;;4958205;28;20247;-80
2023/07/02 09:13:02;;;;;;;8.52;4.82;;;22.00;94.10;;;;;;4975396;28;20231;-81
2023/07/02 09:15:36;;;;;;;8.57;4.60;;;22.30;93.30;;;;;;4958010;28;20247;-81
2023/07/02 09:18:15;;;;;;;10.70;4.13;;;22.50;92.00;;;;;;4943671;28;20310;-80
2023/07/02 09:20:41;;;;;;;9.90;4.70;;;22.70;91.80;;;;;;4951556;28;20242;-79
2023/07/02 09:23:08;;;;;;;8.52;4.65;;;22.70;92.20;;;;;;4961998;28;20701;-80
2023/07/02 09:25:37;;;;;;;11.13;4.72;;;22.60;91.60;;;;;;4960344;28;20236;-81
2023/07/02 09:28:15;;;;;;;9.13;4.85;;;22.50;90.70;;;;;;4976934;28;20784;-78
2023/07/02 09:30:51;;;;;;;11.93;4.68;;;22.30;90.40;;;;;;4972836;28;20234;-77
2023/07/02 09:33:19;;;;;;;9.18;4.82;;;22.00;90.30;;;;;;4958162;28;20731;-78
2023/07/02 09:35:45;;;;;;;10.48;5.03;;;21.70;91.40;;;;;;4960163;28;20857;-79
2023/07/02 09:38:13;;;;;;;9.77;4.20;;;21.40;93.90;;;;;;4957695;28;20322;-78
2023/07/02 09:40:47;;;;;;;9.50;4.53;;;20.90;95.00;;;;;;4960094;28;20338;-79
2023/07/02 09:43:15;;;;;;;9.40;3.60;;;20.40;95.00;;;;;;4972245;28;20226;-78
2023/07/02 09:45:44;;;;;;;10.97;5.37;;;19.90;96.70;;;;;;4974092;28;20222;-78
2023/07/02 09:48:14;;;;;;;12.47;5.47;;;19.40;97.90;;;;;;4956122;28;20708;-79
2023/07/02 09:50:42;;;;;;;9.67;5.03;;;18.90;98.90;;;;;;4958732;28;20229;-78
2023/07/02 09:53:09;;;;;;;12.20;5.67;;;18.50;99.90;;;;;;4949920;28;20232;-78
2023/07/02 09:55:37;;;;;;;12.63;4.73;;;18.10;99.90;;;;;;4958760;28;20638;-78
2023/07/02 09:58:03;;;;;;;10.17;4.97;;;17.90;99.90;;;;;;4942647;28;20230;-78
2023/07/02 10:00:30;;;;;;;13.77;5.57;;;17.70;99.90;;;;;;4939609;28;20231;-78
2023/07/02 10:02:57;;;;;;;12.97;5.30;;;17.70;99.90;;;;;;4952066;28;20299;-78
2023/07/02 10:05:28;;;;;;;13.43;5.17;;;17.90;99.90;;;;;;4949003;28;20406;-78
2023/07/02 10:07:57;;;;;;;11.57;5.10;;;18.10;99.90;;;;;;4935094;28;20228;-79
2023/07/02 10:10:28;;;;;;;11.73;4.70;;;18.40;99.90;;;;;;4951872;28;20238;-79
2023/07/02 10:12:54;;;;;;;10.07;4.70;;;18.70;99.90;;;;;;4940622;28;20235;-78
2023/07/02 10:15:26;;;;;;;12.20;4.18;;;19.10;99.90;;;;;;4942023;28;20242;-78
2023/07/02 10:17:57;;;;;;;7.37;4.23;;;19.40;99.90;;;;;;4959375;28;20230;-78
2023/07/02 10:20:33;;;;;;;11.88;4.22;;;19.70;99.90;;;;;;4956969;28;20239;-78
2023/07/02 10:23:02;;;;;;;6.20;3.35;;;20.00;98.00;;;;;;4957829;28;20249;-78
2023/07/02 10:25:30;;;;;;;10.40;3.70;;;20.30;97.90;;;;;;4976418;28;20289;-78
2023/07/02 10:27:57;;;;;;;7.22;3.50;;;20.60;97.10;;;;;;4953551;28;20708;-78
2023/07/02 10:30:35;;;;;;;9.10;3.83;;;20.90;95.90;;;;;;4958845;28;20316;-78
2023/07/02 10:33:09;;;;;;;9.52;4.07;;;21.40;94.90;;;;;;4955006;28;20232;-77
2023/07/02 10:35:36;;;;;;;9.73;4.35;;;21.70;94.70;;;;;;4968431;28;20219;-77
2023/07/02 10:38:06;;;;;;;8.23;3.88;;;22.00;95.00;;;;;;4971563;28;20222;-77
2023/07/02 10:40:33;;;;;;;7.38;3.60;;;22.20;94.00;;;;;;4939642;28;20745;-77
2023/07/02 10:42:59;;;;;;;8.00;4.07;;;22.40;93.20;;;;;;4955000;28;20258;-77
2023/07/02 10:45:37;;;;;;;6.97;3.53;;;22.50;92.60;;;;;;4937388;28;20279;-77
2023/07/02 10:48:04;;;;;;;11.93;3.97;;;22.40;92.10;;;;;;4939295;28;20749;-77
2023/07/02 10:50:32;;;;;;;10.98;3.78;;;22.30;91.90;;;;;;4938594;28;20236;-77
2023/07/02 10:52:59;;;;;;;6.80;4.15;;;22.10;92.30;;;;;;4941744;28;20223;-77
2023/07/02 10:55:28;;;;;;;7.80;4.13;;;21.80;93.00;;;;;;4941234;28;20229;-77
2023/07/02 10:58:05;;;;;;;10.05;4.28;;;21.60;92.20;;;;;;4951817;28;20219;-77
2023/07/02 11:00:32;;;;;;;7.85;3.72;;;21.40;92.40;;;;;;4963747;28;20418;-77
2023/07/02 11:02:59;;;;;;;8.65;3.80;;;21.20;92.90;;;;;;4957692;28;20897;-77
2023/07/02 11:05:26;;;;;;;8.70;3.95;;;21.10;93.30;;;;;;4959692;28;20222;-77
2023/07/02 11:07:56;;;;;;;7.70;3.92;;;21.00;93.70;;;;;;4960867;28;20226;-77
2023/07/02 11:10:25;;;;;;;7.20;4.03;;;20.80;93.50;;;;;;4957600;28;20308;-77
2023/07/02 11:12:53;;;;;;;9.80;3.85;;;20.70;93.50;;;;;;4960544;28;20953;-77
2023/07/02 11:15:20;;;;;;;8.55;3.88;;;20.50;93.70;;;;;;4959408;28;20664;-77
2023/07/02 11:17:47;;;;;;;9.57;3.75;;;20.40;93.50;;;;;;4960574;28;20887;-77
2023/07/02 11:20:15;;;;;;;5.75;3.50;;;20.20;94.10;;;;;;4962901;28;20230;-77
2023/07/02 11:22:42;;;;;;;7.30;3.38;;;20.20;94.20;;;;;;4960827;28;20218;-77
2023/07/02 11:25:10;;;;;;;9.02;3.15;;;20.40;94.70;;;;;;4963843;28;20347;-77
2023/07/02 11:27:37;;;;;;;8.48;3.58;;;20.60;94.30;;;;;;4972353;28;20211;-77
2023/07/02 11:30:07;;;;;;;9.35;3.47;;;20.90;94.30;;;;;;4963309;28;20232;-77
2023/07/02 11:32:48;;;;;;;8.77;3.20;;;21.30;93.60;;;;;;4965291;28;20230;-77
2023/07/02 11:35:15;;;;;;;9.95;3.72;;;21.60;93.00;;;;;;4961274;28;20250;-77
2023/07/02 11:37:41;;;;;;;7.40;3.28;;;21.80;92.70;;;;;;4961667;28;20223;-78
2023/07/02 11:40:09;;;;;;;5.88;3.05;;;22.00;92.20;;;;;;4960792;28;20239;-77
2023/07/02 11:42:36;;;;;;;7.40;3.08;;;22.00;91.20;;;;;;4958991;28;20242;-77
2023/07/02 11:45:03;;;;;;;8.68;3.38;;;22.00;91.50;;;;;;4961364;28;20223;-77
2023/07/02 11:47:31;;;;;;;7.20;3.15;;;22.00;91.70;;;;;;4956963;28;20234;-77
2023/07/02 11:49:59;;;;;;;6.75;3.00;;;22.00;91.40;;;;;;4961182;28;20223;-77
2023/07/02 11:52:25;;;;;;;7.43;2.72;;;22.10;92.20;;;;;;4959479;28;20322;-77
2023/07/02 11:54:52;;;;;;;7.35;2.80;;;22.20;92.40;;;;;;4960696;28;20229;-77
2023/07/02 11:57:19;;;;;;;5.63;2.80;;;22.50;91.60;;;;;;4966360;28;20254;-77
2023/07/02 11:59:45;;;;;;;5.80;2.97;;;22.80;90.60;;;;;;4980976;28;20642;-77
2023/07/02 12:02:12;;;;;;;3.42;2.28;;;23.10;90.20;;;;;;4971048;28;20887;-77
2023/07/02 12:04:40;;;;;;;7.60;3.03;;;23.10;90.00;;;;;;4961553;28;20219;-77
2023/07/02 12:07:07;;;;;;;8.60;3.13;;;23.20;87.50;;;;;;4965479;28;20238;-77
2023/07/02 12:09:34;;;;;;;4.03;2.20;;;23.10;86.30;;;;;;4963372;28;20229;-77
2023/07/02 12:12:00;;;;;;;9.88;2.78;;;23.10;86.00;;;;;;4967231;28;20216;-77
2023/07/02 12:14:27;;;;;;;3.90;2.25;;;22.90;84.80;;;;;;4944039;28;20837;-77
2023/07/02 12:16:54;;;;;;;4.53;1.98;;;22.70;84.50;;;;;;4946111;28;20216;-77
2023/07/02 12:19:20;;;;;;;6.13;2.60;;;22.40;85.00;;;;;;4961909;28;20233;-77
2023/07/02 12:21:48;;;;;;;7.50;2.80;;;22.20;89.00;;;;;;4964717;28;20916;-77
2023/07/02 12:24:15;;;;;;;9.70;3.17;;;21.90;91.40;;;;;;4961505;28;20239;-77
2023/07/02 12:26:43;;;;;;;8.88;2.83;;;21.60;92.10;;;;;;4966893;28;20226;-77
2023/07/02 12:29:10;;;;;;;6.07;2.80;;;21.30;92.40;;;;;;4962373;28;20219;-77
2023/07/02 12:31:36;;;;;;;8.05;3.03;;;21.00;92.50;;;;;;4962869;28;20241;-76
2023/07/02 12:34:03;;;;;;;6.45;2.70;;;20.90;93.20;;;;;;4960491;28;20253;-77
2023/07/02 12:36:30;;;;;;;5.60;2.70;;;20.90;93.60;;;;;;4956056;28;20227;-77
2023/07/02 12:38:58;;;;;;;9.25;2.55;;;21.00;93.70;;;;;;4958267;28;20252;-77
2023/07/02 12:41:25;;;;;;;8.90;2.90;;;21.20;93.50;;;;;;4959171;28;20233;-77
2023/07/02 12:43:51;;;;;;;8.25;2.78;;;21.40;93.30;;;;;;4957040;28;20420;-77
2023/07/02 12:46:18;;;;;;;7.68;3.00;;;21.60;93.10;;;;;;4959213;28;20233;-77